Time;durP1;ratioP1;P1;durP2;ratioP2;P2;SDS_P1;SDS_P2;PMS_P1;PMS_P2;Temp;Humidity;BMP_temperature;BMP_pressure;BME280_temperature;BME280_humidity;BME280_pressure;Samples;Min_cycle;Max_cycle;Signal;HPM_P1;HPM_P2
2022/08/15 00:01:44;;;;;;;1.80;1.70;;;25.70;99.00;;;;;;5065438;28;20221;-47
2022/08/15 00:04:11;;;;;;;3.00;2.40;;;25.60;99.00;;;;;;5061898;28;20190;-45
2022/08/15 00:06:41;;;;;;;3.13;2.83;;;25.60;99.10;;;;;;5066441;28;20543;-43
2022/08/15 00:09:13;;;;;;;3.55;3.20;;;25.50;99.10;;;;;;5066446;28;20291;-43
2022/08/15 00:11:43;;;;;;;3.33;3.03;;;25.50;99.20;;;;;;5066294;28;20198;-42
2022/08/15 00:14:15;;;;;;;3.10;2.83;;;25.50;99.30;;;;;;5066248;28;20194;-44
2022/08/15 00:16:44;;;;;;;2.40;2.30;;;25.50;99.30;;;;;;5065051;28;20194;-43
2022/08/15 00:19:14;;;;;;;2.92;2.70;;;25.50;99.30;;;;;;5065876;28;20668;-46
2022/08/15 00:21:46;;;;;;;3.05;2.50;;;25.50;99.40;;;;;;5063582;28;20666;-42
2022/08/15 00:24:16;;;;;;;2.85;2.33;;;25.40;99.40;;;;;;5064673;28;20200;-45
2022/08/15 00:26:43;;;;;;;2.55;2.45;;;25.40;99.50;;;;;;5059818;28;20250;-47
2022/08/15 00:29:12;;;;;;;6.45;2.40;;;25.30;99.50;;;;;;5063028;28;20218;-42
2022/08/15 00:31:40;;;;;;;2.05;1.95;;;25.30;99.60;;;;;;5062707;28;20194;-41
2022/08/15 00:34:07;;;;;;;2.20;2.10;;;25.30;99.60;;;;;;5061398;28;20513;-50
2022/08/15 00:36:36;;;;;;;2.95;2.75;;;25.30;99.70;;;;;;5062021;28;20660;-49
2022/08/15 00:39:06;;;;;;;3.30;2.00;;;25.30;99.90;;;;;;5063867;28;20529;-49
2022/08/15 00:41:42;;;;;;;2.33;2.22;;;25.30;99.80;;;;;;5066408;28;20557;-48
2022/08/15 00:44:17;;;;;;;2.33;2.22;;;25.40;99.80;;;;;;5065903;28;20565;-47
2022/08/15 00:46:47;;;;;;;2.65;2.45;;;25.30;99.80;;;;;;5068876;28;20205;-45
2022/08/15 00:49:15;;;;;;;2.55;2.40;;;25.30;99.90;;;;;;5063741;28;20200;-47
2022/08/15 00:51:47;;;;;;;1.83;1.73;;;25.30;99.90;;;;;;5067780;28;20197;-45
2022/08/15 00:54:22;;;;;;;2.58;2.38;;;25.30;99.90;;;;;;5065970;28;20237;-46
2022/08/15 00:56:52;;;;;;;2.38;2.17;;;25.30;99.90;;;;;;5068144;28;20288;-44
2022/08/15 00:59:24;;;;;;;2.40;2.20;;;25.30;99.90;;;;;;5068534;28;20251;-42
2022/08/15 01:01:52;;;;;;;2.20;2.10;;;25.30;99.90;;;;;;5067599;28;20186;-47
2022/08/15 01:04:19;;;;;;;2.63;2.40;;;25.30;99.90;;;;;;5066963;28;20201;-43
2022/08/15 01:06:47;;;;;;;3.70;2.40;;;25.40;99.90;;;;;;5067985;28;20194;-50
2022/08/15 01:09:17;;;;;;;3.78;2.70;;;25.40;99.90;;;;;;5068928;28;20201;-47
2022/08/15 01:11:51;;;;;;;2.90;2.70;;;25.40;99.90;;;;;;5067110;28;20181;-44
2022/08/15 01:14:21;;;;;;;2.67;2.47;;;25.40;99.90;;;;;;5062607;28;20194;-50
2022/08/15 01:16:48;;;;;;;2.47;2.38;;;25.30;99.90;;;;;;5068568;28;20722;-46
2022/08/15 01:19:29;;;;;;;2.95;2.38;;;25.30;99.90;;;;;;5067404;28;20231;-47
2022/08/15 01:22:11;;;;;;;2.55;2.35;;;25.30;99.90;;;;;;5072404;28;20658;-48
2022/08/15 01:25:00;;;;;;;2.30;2.20;;;25.30;99.90;;;;;;5066712;28;20687;-47
2022/08/15 01:27:37;;;;;;;2.60;2.40;;;25.30;99.90;;;;;;5064340;28;20232;-46
2022/08/15 01:30:08;;;;;;;2.45;2.25;;;25.30;99.90;;;;;;5064462;28;20212;-46
2022/08/15 01:32:35;;;;;;;2.40;2.05;;;25.30;99.90;;;;;;5069073;28;20186;-50
2022/08/15 01:35:03;;;;;;;4.18;2.22;;;25.30;99.90;;;;;;5066178;28;20193;-48
2022/08/15 01:37:31;;;;;;;2.50;2.30;;;25.30;99.90;;;;;;5066330;28;20204;-50
2022/08/15 01:40:05;;;;;;;2.50;2.30;;;25.30;99.90;;;;;;5065056;28;20204;-47
2022/08/15 01:42:37;;;;;;;2.58;2.40;;;25.30;99.90;;;;;;5065120;28;20189;-50
2022/08/15 01:45:09;;;;;;;2.17;2.08;;;25.30;99.90;;;;;;5065364;28;20580;-48
2022/08/15 01:47:42;;;;;;;2.40;2.30;;;25.30;99.90;;;;;;5067414;28;20296;-51
2022/08/15 01:50:12;;;;;;;2.50;2.40;;;25.30;99.90;;;;;;5066131;28;20193;-51
2022/08/15 01:52:46;;;;;;;2.30;2.20;;;25.20;99.90;;;;;;5068117;28;20664;-47
2022/08/15 01:55:18;;;;;;;2.50;2.40;;;25.20;99.90;;;;;;5066474;28;20193;-47
2022/08/15 01:57:46;;;;;;;2.28;2.17;;;25.20;99.90;;;;;;5062732;28;20193;-48
2022/08/15 02:00:17;;;;;;;2.80;2.60;;;25.10;99.90;;;;;;5068436;28;20552;-45
2022/08/15 02:02:45;;;;;;;2.63;2.53;;;25.10;99.90;;;;;;5063718;28;20275;-47
2022/08/15 02:05:12;;;;;;;2.67;1.90;;;25.10;99.90;;;;;;5066277;28;20204;-49
2022/08/15 02:07:40;;;;;;;2.53;2.33;;;25.10;99.90;;;;;;5059199;28;20209;-46
2022/08/15 02:10:09;;;;;;;2.88;2.67;;;25.10;99.90;;;;;;5063085;28;20198;-50
2022/08/15 02:12:40;;;;;;;2.58;2.38;;;25.10;99.90;;;;;;5065436;28;20292;-47
2022/08/15 02:15:15;;;;;;;2.85;2.65;;;25.00;99.90;;;;;;5064053;28;20206;-48
2022/08/15 02:17:43;;;;;;;2.80;2.60;;;25.10;99.90;;;;;;5063935;28;20255;-47
2022/08/15 02:20:12;;;;;;;3.08;2.88;;;25.10;99.90;;;;;;5065260;28;20312;-48
2022/08/15 02:22:39;;;;;;;2.63;2.53;;;25.00;99.90;;;;;;5067029;28;20542;-51
2022/08/15 02:25:09;;;;;;;2.50;2.40;;;25.00;99.90;;;;;;5064127;28;20635;-48
2022/08/15 02:27:38;;;;;;;2.60;2.50;;;25.00;99.90;;;;;;5064805;28;20250;-48
2022/08/15 02:30:10;;;;;;;2.50;2.30;;;25.00;99.90;;;;;;5064513;28;20198;-48
2022/08/15 02:32:39;;;;;;;2.50;2.38;;;24.90;99.90;;;;;;5064505;28;20249;-48
2022/08/15 02:35:08;;;;;;;3.00;2.80;;;24.90;99.90;;;;;;5066132;28;20287;-48
2022/08/15 02:37:35;;;;;;;3.20;3.00;;;24.90;99.90;;;;;;5062831;28;20664;-50
2022/08/15 02:40:02;;;;;;;2.55;2.40;;;25.00;99.90;;;;;;5064572;28;20220;-48
2022/08/15 02:42:29;;;;;;;2.63;2.50;;;24.90;99.90;;;;;;5062518;28;20213;-47
2022/08/15 02:44:57;;;;;;;2.92;2.72;;;24.90;99.90;;;;;;5065571;28;20284;-44
2022/08/15 02:47:26;;;;;;;2.95;2.75;;;24.90;99.90;;;;;;5063448;28;20196;-50
2022/08/15 02:49:53;;;;;;;3.00;2.60;;;24.90;99.90;;;;;;5060859;28;20226;-49
2022/08/15 02:52:22;;;;;;;4.47;2.78;;;24.80;99.90;;;;;;5064823;28;20251;-43
2022/08/15 02:54:55;;;;;;;2.60;2.50;;;24.80;99.90;;;;;;5064237;28;20281;-45
2022/08/15 02:57:23;;;;;;;2.38;2.28;;;24.80;99.90;;;;;;5065418;28;20201;-47
2022/08/15 02:59:51;;;;;;;2.28;2.17;;;24.80;99.90;;;;;;5064081;28;20201;-48
2022/08/15 03:02:28;;;;;;;3.50;3.20;;;24.80;99.90;;;;;;5064833;28;20204;-45
2022/08/15 03:04:55;;;;;;;4.63;3.38;;;24.80;99.90;;;;;;5064778;28;20216;-51
2022/08/15 03:07:22;;;;;;;2.65;2.55;;;24.80;99.90;;;;;;5066822;28;20255;-46
2022/08/15 03:09:50;;;;;;;2.88;2.67;;;24.80;99.90;;;;;;5064577;28;20185;-47
2022/08/15 03:12:20;;;;;;;3.58;3.28;;;24.90;99.90;;;;;;5067814;28;20232;-49
2022/08/15 03:14:47;;;;;;;3.15;2.95;;;24.90;99.90;;;;;;5066281;28;20793;-48
2022/08/15 03:17:15;;;;;;;3.30;3.10;;;24.80;99.90;;;;;;5066713;28;20227;-46
2022/08/15 03:19:48;;;;;;;4.40;2.58;;;24.80;99.90;;;;;;5061528;28;20241;-44
2022/08/15 03:22:17;;;;;;;3.20;3.00;;;24.80;99.90;;;;;;5067266;28;20228;-48
2022/08/15 03:24:46;;;;;;;3.10;2.88;;;24.70;99.90;;;;;;5067133;28;20280;-52
2022/08/15 03:27:13;;;;;;;3.13;2.92;;;24.70;99.90;;;;;;5065399;28;20197;-50
2022/08/15 03:29:40;;;;;;;3.58;3.28;;;24.70;99.90;;;;;;5062933;28;20193;-53
2022/08/15 03:32:12;;;;;;;3.40;3.13;;;24.70;99.90;;;;;;5062509;28;20280;-48
2022/08/15 03:34:40;;;;;;;3.55;3.25;;;24.70;99.90;;;;;;5081152;28;20213;-49
2022/08/15 03:37:09;;;;;;;3.38;3.08;;;24.70;99.90;;;;;;5065590;28;20225;-50
2022/08/15 03:39:36;;;;;;;3.00;2.80;;;24.70;99.90;;;;;;5075612;28;20186;-51
2022/08/15 03:42:09;;;;;;;3.20;2.90;;;24.70;99.90;;;;;;5059908;28;20205;-50
2022/08/15 03:44:37;;;;;;;4.00;2.88;;;24.70;99.90;;;;;;5065531;28;20205;-48
2022/08/15 03:47:06;;;;;;;3.60;3.28;;;24.70;99.90;;;;;;5064118;28;20197;-45
2022/08/15 03:49:36;;;;;;;3.08;2.85;;;24.70;99.90;;;;;;5064076;28;20236;-43
2022/08/15 03:52:06;;;;;;;3.42;3.22;;;24.70;99.90;;;;;;5065075;28;20208;-44
2022/08/15 03:54:35;;;;;;;3.53;3.22;;;24.70;99.90;;;;;;5062393;28;20297;-42
2022/08/15 03:57:02;;;;;;;3.30;3.10;;;24.70;99.90;;;;;;5062075;28;20194;-42
2022/08/15 03:59:30;;;;;;;3.63;3.33;;;24.70;99.90;;;;;;5062552;28;20197;-42
2022/08/15 04:01:57;;;;;;;3.65;3.35;;;24.70;99.90;;;;;;5064340;28;20290;-44
2022/08/15 04:04:25;;;;;;;2.40;2.30;;;24.70;99.90;;;;;;5061510;28;20297;-42
2022/08/15 04:06:52;;;;;;;3.05;2.80;;;24.70;99.90;;;;;;5064114;28;20629;-45
2022/08/15 04:09:19;;;;;;;3.50;3.10;;;24.70;99.90;;;;;;5063117;28;20193;-45
2022/08/15 04:11:49;;;;;;;3.20;2.90;;;24.70;99.90;;;;;;5061921;28;20603;-48
2022/08/15 04:14:29;;;;;;;4.07;3.60;;;24.70;99.90;;;;;;5068561;28;20781;-45
2022/08/15 04:17:00;;;;;;;3.33;3.13;;;24.70;99.90;;;;;;5069579;28;20205;-46
2022/08/15 04:19:27;;;;;;;5.55;3.38;;;24.70;99.90;;;;;;5066894;28;20405;-46
2022/08/15 04:21:55;;;;;;;3.33;3.03;;;24.70;99.90;;;;;;5068603;28;20202;-47
2022/08/15 04:24:22;;;;;;;3.10;2.80;;;24.70;99.90;;;;;;5066343;28;20638;-44
2022/08/15 04:26:50;;;;;;;3.45;3.22;;;24.70;99.90;;;;;;5068044;28;20652;-43
2022/08/15 04:29:17;;;;;;;4.07;3.60;;;24.70;99.90;;;;;;5066632;28;20641;-44
2022/08/15 04:31:45;;;;;;;4.70;3.67;;;24.70;99.90;;;;;;5068588;28;20197;-47
2022/08/15 04:34:12;;;;;;;3.28;3.08;;;24.70;99.90;;;;;;5068119;28;20229;-43
2022/08/15 04:36:40;;;;;;;5.20;3.10;;;24.70;99.90;;;;;;5068232;28;20197;-43
2022/08/15 04:39:08;;;;;;;3.78;3.47;;;24.70;99.90;;;;;;5070427;28;20205;-45
2022/08/15 04:41:44;;;;;;;5.82;3.50;;;24.80;99.90;;;;;;5065398;28;20247;-47
2022/08/15 04:44:13;;;;;;;3.25;3.00;;;24.70;99.90;;;;;;5068414;28;20235;-47
2022/08/15 04:46:40;;;;;;;2.88;2.75;;;24.70;99.90;;;;;;5066496;28;20671;-46
2022/08/15 04:49:08;;;;;;;2.90;2.70;;;24.80;99.90;;;;;;5067822;28;20225;-42
2022/08/15 04:51:37;;;;;;;3.53;2.90;;;24.80;99.90;;;;;;5065749;28;20661;-45
2022/08/15 04:54:08;;;;;;;3.10;2.90;;;24.80;99.90;;;;;;5066995;28;20240;-45
2022/08/15 04:56:35;;;;;;;3.50;3.20;;;24.80;99.90;;;;;;5065384;28;20568;-48
2022/08/15 04:59:02;;;;;;;3.28;2.97;;;24.80;99.90;;;;;;5067963;28;20291;-43
2022/08/15 05:01:31;;;;;;;4.80;4.50;;;24.90;99.90;;;;;;5063041;28;20275;-46
2022/08/15 05:04:00;;;;;;;6.32;5.45;;;24.90;99.90;;;;;;5064551;28;20580;-45
2022/08/15 05:06:28;;;;;;;6.85;5.30;;;24.90;99.90;;;;;;5065576;28;20216;-52
2022/08/15 05:08:55;;;;;;;7.05;5.28;;;24.90;99.90;;;;;;5065661;28;20201;-47
2022/08/15 05:11:24;;;;;;;7.15;5.65;;;24.90;99.90;;;;;;5068345;28;20266;-45
2022/08/15 05:13:56;;;;;;;5.53;4.93;;;24.90;99.90;;;;;;5066734;28;20223;-43
2022/08/15 05:16:28;;;;;;;4.72;4.32;;;24.90;99.90;;;;;;5063736;28;20636;-46
2022/08/15 05:18:57;;;;;;;5.00;4.50;;;24.90;99.90;;;;;;5063595;28;20711;-47
2022/08/15 05:21:24;;;;;;;5.82;5.00;;;24.90;99.90;;;;;;5063413;28;20210;-47
2022/08/15 05:23:52;;;;;;;4.63;4.30;;;24.90;99.90;;;;;;5065631;28;20190;-48
2022/08/15 05:26:26;;;;;;;5.32;4.22;;;24.90;99.90;;;;;;5064302;28;20193;-51
2022/08/15 05:28:53;;;;;;;5.30;4.80;;;24.90;99.90;;;;;;5067905;28;20228;-49
2022/08/15 05:31:20;;;;;;;6.95;5.40;;;24.90;99.90;;;;;;5065711;28;20205;-51
2022/08/15 05:33:56;;;;;;;6.32;5.35;;;25.00;99.90;;;;;;5062861;28;20254;-47
2022/08/15 05:36:24;;;;;;;5.90;5.30;;;25.00;99.90;;;;;;5065257;28;20280;-50
2022/08/15 05:38:58;;;;;;;5.38;4.88;;;25.00;99.90;;;;;;5067226;28;20208;-45
2022/08/15 05:41:37;;;;;;;5.50;4.90;;;25.00;99.90;;;;;;5064382;28;20209;-46
2022/08/15 05:44:12;;;;;;;5.95;5.40;;;25.00;99.90;;;;;;5067906;28;20208;-46
2022/08/15 05:46:46;;;;;;;6.55;5.72;;;25.00;99.90;;;;;;5066006;28;20304;-50
2022/08/15 05:49:29;;;;;;;6.00;5.40;;;25.10;99.90;;;;;;5066340;28;20207;-44
2022/08/15 05:52:15;;;;;;;5.60;5.10;;;25.10;99.90;;;;;;5066206;28;20263;-50
2022/08/15 05:54:56;;;;;;;7.55;5.15;;;25.10;99.90;;;;;;5066493;28;20213;-50
2022/08/15 05:57:29;;;;;;;5.35;4.80;;;25.10;99.90;;;;;;5067065;28;20260;-51
2022/08/15 06:00:07;;;;;;;7.70;5.57;;;25.10;99.90;;;;;;5066423;28;20225;-49
2022/08/15 06:02:44;;;;;;;6.70;5.75;;;25.20;99.90;;;;;;5069627;28;20215;-48
2022/08/15 06:05:16;;;;;;;10.20;5.85;;;25.20;99.90;;;;;;5066545;28;20197;-48
2022/08/15 06:07:46;;;;;;;5.55;4.85;;;25.20;99.90;;;;;;5068487;28;20197;-47
2022/08/15 06:10:25;;;;;;;7.53;5.40;;;25.20;99.90;;;;;;5066998;28;20251;-47
2022/08/15 06:13:01;;;;;;;6.72;5.78;;;25.20;99.90;;;;;;5065308;28;20189;-46
2022/08/15 06:15:35;;;;;;;8.55;5.63;;;25.30;99.90;;;;;;5066355;28;20247;-51
2022/08/15 06:18:07;;;;;;;7.18;5.93;;;25.30;99.90;;;;;;5065302;28;20201;-50
2022/08/15 06:20:42;;;;;;;6.78;6.00;;;25.30;99.90;;;;;;5061398;28;20232;-50
2022/08/15 06:23:20;;;;;;;5.95;5.35;;;25.40;99.90;;;;;;5067265;28;20238;-50
2022/08/15 06:26:01;;;;;;;6.60;5.95;;;25.40;99.90;;;;;;5066569;28;20200;-43
2022/08/15 06:28:53;;;;;;;8.55;6.65;;;25.40;99.90;;;;;;5063363;28;20204;-50
2022/08/15 06:31:25;;;;;;;8.60;5.85;;;25.50;99.90;;;;;;5066526;28;20189;-51
2022/08/15 06:34:02;;;;;;;8.00;7.03;;;25.50;99.90;;;;;;5066262;28;20262;-50
2022/08/15 06:36:38;;;;;;;6.47;5.45;;;25.50;99.90;;;;;;5066810;28;20213;-42
2022/08/15 06:39:13;;;;;;;6.35;5.28;;;25.50;99.90;;;;;;5064473;28;20193;-45
2022/08/15 06:41:48;;;;;;;4.70;4.40;;;25.60;99.90;;;;;;5064311;28;20219;-46
2022/08/15 06:44:19;;;;;;;3.72;3.42;;;25.60;99.90;;;;;;5066237;28;20208;-48
2022/08/15 06:47:03;;;;;;;8.25;5.53;;;25.70;99.90;;;;;;5064216;28;20229;-50
2022/08/15 06:49:35;;;;;;;7.70;5.43;;;25.80;99.90;;;;;;5065208;28;20291;-45
2022/08/15 06:52:05;;;;;;;7.07;6.05;;;25.80;99.90;;;;;;5061810;28;20193;-50
2022/08/15 06:54:32;;;;;;;7.15;6.10;;;25.90;99.90;;;;;;5067402;28;20653;-49
2022/08/15 06:57:05;;;;;;;8.15;6.05;;;26.00;99.90;;;;;;5079289;28;20687;-48
2022/08/15 06:59:39;;;;;;;9.32;6.20;;;26.00;99.90;;;;;;5062663;28;20201;-49
2022/08/15 07:02:19;;;;;;;5.75;5.25;;;26.00;99.90;;;;;;5063512;28;20197;-46
2022/08/15 07:04:56;;;;;;;5.18;4.78;;;26.10;99.90;;;;;;5062060;28;20205;-43
2022/08/15 07:07:35;;;;;;;6.22;5.63;;;26.10;99.80;;;;;;5066052;28;20277;-45
2022/08/15 07:10:11;;;;;;;4.88;4.47;;;26.20;99.80;;;;;;5063665;28;20207;-48
2022/08/15 07:12:45;;;;;;;9.32;4.55;;;26.20;99.80;;;;;;5065465;28;20220;-48
2022/08/15 07:15:21;;;;;;;5.60;4.88;;;26.30;99.70;;;;;;5065656;28;20227;-51
2022/08/15 07:17:52;;;;;;;8.05;5.90;;;26.40;99.50;;;;;;5063926;28;20196;-47
2022/08/15 07:20:19;;;;;;;5.47;5.05;;;26.40;99.30;;;;;;5063781;28;20221;-43
2022/08/15 07:22:48;;;;;;;4.65;4.25;;;26.40;99.50;;;;;;5064193;28;20297;-49
2022/08/15 07:25:26;;;;;;;4.53;4.13;;;26.50;99.20;;;;;;5062637;28;20296;-43
2022/08/15 07:27:58;;;;;;;7.05;5.78;;;26.50;99.10;;;;;;5062324;28;20234;-42
2022/08/15 07:30:37;;;;;;;5.47;4.93;;;26.70;99.00;;;;;;5063982;28;20200;-44
2022/08/15 07:33:05;;;;;;;8.32;6.03;;;26.70;98.80;;;;;;5062964;28;20189;-43
2022/08/15 07:35:35;;;;;;;5.63;4.90;;;26.80;98.70;;;;;;5062678;28;20267;-43
2022/08/15 07:38:08;;;;;;;5.88;5.28;;;26.80;98.60;;;;;;5065481;28;20284;-44
2022/08/15 07:40:37;;;;;;;5.10;4.65;;;26.90;98.60;;;;;;5062883;28;20668;-42
2022/08/15 07:43:25;;;;;;;7.95;5.82;;;27.00;98.50;;;;;;5064523;28;20193;-45
2022/08/15 07:46:08;;;;;;;5.82;5.32;;;27.00;98.30;;;;;;5065062;28;20228;-43
2022/08/15 07:48:35;;;;;;;6.65;5.85;;;27.10;98.20;;;;;;5074307;28;20259;-43
2022/08/15 07:51:23;;;;;;;5.72;5.22;;;27.10;98.00;;;;;;5068351;28;20204;-46
2022/08/15 07:54:24;;;;;;;4.53;4.22;;;27.20;97.90;;;;;;5069041;28;20189;-45
2022/08/15 07:56:54;;;;;;;5.40;5.00;;;27.30;97.80;;;;;;5065102;28;20212;-43
2022/08/15 07:59:25;;;;;;;6.32;5.72;;;27.40;97.70;;;;;;5068977;28;20243;-42
2022/08/15 08:02:06;;;;;;;5.05;4.57;;;27.50;97.60;;;;;;5070354;28;20211;-44
2022/08/15 08:04:35;;;;;;;7.00;5.78;;;27.60;97.50;;;;;;5070250;28;20304;-46
2022/08/15 08:07:10;;;;;;;9.50;6.70;;;27.60;97.40;;;;;;5070745;28;20254;-48
2022/08/15 08:09:44;;;;;;;7.05;6.40;;;27.70;97.20;;;;;;5069035;28;20197;-43
2022/08/15 08:12:21;;;;;;;6.43;5.82;;;27.80;97.00;;;;;;5065247;28;20234;-45
2022/08/15 08:15:02;;;;;;;5.93;5.32;;;27.80;96.90;;;;;;5064849;28;20267;-45
2022/08/15 08:17:34;;;;;;;5.18;4.32;;;27.90;96.90;;;;;;5066576;28;20197;-44
2022/08/15 08:20:10;;;;;;;3.95;3.75;;;27.90;96.80;;;;;;5067253;28;20229;-47
2022/08/15 08:22:44;;;;;;;5.03;4.63;;;28.00;96.70;;;;;;5068594;28;20597;-48
2022/08/15 08:25:25;;;;;;;5.90;5.40;;;28.10;96.60;;;;;;5066385;28;20728;-43
2022/08/15 08:28:02;;;;;;;5.53;5.03;;;28.10;96.40;;;;;;5069776;28;20710;-44
2022/08/15 08:30:37;;;;;;;4.75;4.25;;;28.20;96.30;;;;;;5069520;28;20188;-41
2022/08/15 08:33:17;;;;;;;3.78;3.58;;;28.30;96.20;;;;;;5070837;28;20207;-42
2022/08/15 08:35:52;;;;;;;4.65;3.70;;;28.40;96.20;;;;;;5066351;28;20266;-42
2022/08/15 08:38:31;;;;;;;4.50;4.20;;;28.40;96.10;;;;;;5067419;28;20270;-45
2022/08/15 08:41:28;;;;;;;11.18;6.80;;;28.50;96.00;;;;;;5070209;28;20197;-47
2022/08/15 08:44:08;;;;;;;6.25;5.68;;;28.50;95.70;;;;;;5068277;28;20190;-48
2022/08/15 08:46:52;;;;;;;6.47;5.85;;;28.60;95.60;;;;;;5066382;28;20680;-47
2022/08/15 08:49:31;;;;;;;6.30;5.80;;;28.70;95.50;;;;;;5066633;28;20243;-44
2022/08/15 08:52:05;;;;;;;7.13;6.20;;;28.70;95.40;;;;;;5069882;28;20552;-45
2022/08/15 08:54:40;;;;;;;5.97;5.47;;;28.80;95.30;;;;;;5069392;28;20220;-43
2022/08/15 08:57:12;;;;;;;6.20;5.65;;;28.90;95.20;;;;;;5067866;28;20224;-51
2022/08/15 08:59:49;;;;;;;6.05;5.15;;;29.00;95.20;;;;;;5067244;28;20189;-48
2022/08/15 09:02:21;;;;;;;18.23;5.25;;;29.00;95.10;;;;;;5068099;28;20722;-45
2022/08/15 09:04:54;;;;;;;28.52;7.57;;;29.10;95.00;;;;;;5065168;28;20611;-46
2022/08/15 09:07:25;;;;;;;36.97;8.57;;;29.20;94.90;;;;;;5056826;28;20273;-52
2022/08/15 09:09:54;;;;;;;11.07;6.20;;;29.20;94.90;;;;;;5063685;28;20289;-48
2022/08/15 09:15:16;;;;;;;30.23;8.10;;;29.40;94.90;;;;;;5067157;28;20723;-49
2022/08/15 09:17:48;;;;;;;33.60;9.02;;;29.50;95.20;;;;;;5064262;28;20212;-46
2022/08/15 09:20:20;;;;;;;10.35;6.30;;;29.60;94.70;;;;;;5059285;28;20225;-45
2022/08/15 09:22:48;;;;;;;5.68;5.10;;;29.60;94.50;;;;;;5065978;28;20272;-44
2022/08/15 09:25:16;;;;;;;5.15;4.75;;;29.60;94.50;;;;;;5069663;28;20714;-49
2022/08/15 09:27:51;;;;;;;6.78;4.82;;;29.60;94.50;;;;;;5069111;28;20568;-47
2022/08/15 09:30:19;;;;;;;5.22;4.82;;;29.60;94.50;;;;;;5063098;28;20637;-49
2022/08/15 09:32:57;;;;;;;5.07;4.68;;;29.60;94.50;;;;;;5065510;28;20193;-47
2022/08/15 09:35:41;;;;;;;5.70;5.20;;;29.60;94.50;;;;;;5064892;28;20216;-46
2022/08/15 09:38:33;;;;;;;6.15;5.55;;;29.50;94.50;;;;;;5066058;28;20699;-49
2022/08/15 09:41:34;;;;;;;5.30;4.90;;;29.50;94.90;;;;;;5065480;28;20263;-52
2022/08/15 09:44:23;;;;;;;5.40;4.95;;;29.50;94.50;;;;;;5067013;28;20212;-46
2022/08/15 09:47:21;;;;;;;7.07;5.22;;;29.50;94.50;;;;;;5066042;28;20181;-52
2022/08/15 09:50:07;;;;;;;5.75;5.13;;;29.60;94.40;;;;;;5034182;28;20293;-49
2022/08/15 09:52:40;;;;;;;13.77;5.80;;;29.60;94.30;;;;;;5074690;28;20250;-46
2022/08/15 09:55:20;;;;;;;10.82;6.25;;;29.70;94.30;;;;;;5068031;28;20213;-50
2022/08/15 09:57:51;;;;;;;6.63;5.70;;;29.70;94.10;;;;;;5066966;28;20231;-50
2022/08/15 10:00:29;;;;;;;6.47;5.82;;;29.70;94.00;;;;;;5068965;28;20209;-48
2022/08/15 10:03:02;;;;;;;5.57;5.18;;;29.70;94.00;;;;;;5068940;28;20671;-46
2022/08/15 10:05:44;;;;;;;5.50;5.00;;;29.70;93.90;;;;;;5066437;28;20289;-44
2022/08/15 10:08:14;;;;;;;4.75;4.45;;;29.50;93.90;;;;;;5069855;28;20243;-45
2022/08/15 10:10:53;;;;;;;6.35;5.28;;;29.50;93.90;;;;;;5066507;28;20657;-48
2022/08/15 10:13:45;;;;;;;5.57;5.07;;;29.40;93.90;;;;;;5066655;28;20292;-46
2022/08/15 10:16:48;;;;;;;7.90;6.60;;;29.30;93.90;;;;;;5068513;28;20588;-45
2022/08/15 10:19:38;;;;;;;8.32;6.00;;;29.40;93.90;;;;;;5067346;28;20635;-46
2022/08/15 10:22:38;;;;;;;7.10;5.45;;;29.40;93.80;;;;;;5068828;28;20196;-49
2022/08/15 10:25:20;;;;;;;5.93;5.43;;;29.30;93.70;;;;;;5067922;28;20189;-49
2022/08/15 10:27:59;;;;;;;5.68;5.18;;;29.20;93.70;;;;;;5063501;28;20222;-49
2022/08/15 10:30:31;;;;;;;6.25;5.50;;;29.20;93.80;;;;;;5064375;28;20200;-51
2022/08/15 10:33:00;;;;;;;5.82;5.30;;;29.10;93.80;;;;;;5067706;28;20224;-49
2022/08/15 10:35:35;;;;;;;5.50;5.10;;;29.00;93.90;;;;;;5064979;28;20624;-48
2022/08/15 10:38:04;;;;;;;9.63;5.35;;;29.00;94.00;;;;;;5068906;28;20656;-46
2022/08/15 10:40:48;;;;;;;6.43;5.88;;;28.90;94.00;;;;;;5065573;28;20229;-51
2022/08/15 10:43:29;;;;;;;5.80;5.40;;;28.90;94.00;;;;;;5067889;28;20615;-49
2022/08/15 10:46:00;;;;;;;5.75;5.25;;;28.80;94.00;;;;;;5063097;28;20676;-47
2022/08/15 10:48:46;;;;;;;5.75;5.22;;;28.80;94.10;;;;;;5065933;28;20193;-51
2022/08/15 10:51:25;;;;;;;5.47;5.07;;;28.70;94.20;;;;;;5068334;28;20260;-47
2022/08/15 10:54:06;;;;;;;5.22;4.82;;;28.70;94.30;;;;;;5067037;28;20220;-43
2022/08/15 10:56:38;;;;;;;4.97;4.57;;;28.60;94.40;;;;;;5066446;28;20210;-48
2022/08/15 10:59:09;;;;;;;4.18;3.90;;;28.60;94.40;;;;;;5068050;28;20258;-43
2022/08/15 11:01:38;;;;;;;5.80;5.13;;;28.60;94.50;;;;;;5062638;28;20670;-43
2022/08/15 11:04:09;;;;;;;4.88;4.45;;;28.60;94.60;;;;;;5067534;28;20189;-47
2022/08/15 11:06:40;;;;;;;5.95;5.35;;;28.70;94.60;;;;;;5065205;28;20192;-44
2022/08/15 11:09:10;;;;;;;5.40;5.00;;;28.70;94.70;;;;;;5066275;28;20186;-45
2022/08/15 11:11:42;;;;;;;5.40;4.90;;;28.80;94.90;;;;;;5064897;28;20250;-45
2022/08/15 11:14:18;;;;;;;6.78;5.03;;;28.70;94.90;;;;;;5066944;28;20193;-48
2022/08/15 11:16:51;;;;;;;6.15;5.55;;;28.80;95.10;;;;;;5064401;28;20894;-44
2022/08/15 11:19:22;;;;;;;6.70;5.63;;;28.80;95.20;;;;;;5063346;28;20233;-46
2022/08/15 11:21:52;;;;;;;5.80;5.32;;;28.90;95.30;;;;;;5067017;28;20201;-49
2022/08/15 11:24:28;;;;;;;10.15;6.10;;;29.00;95.80;;;;;;5065960;28;20262;-46
2022/08/15 11:27:14;;;;;;;7.28;5.97;;;29.10;95.50;;;;;;5061781;28;20304;-50
2022/08/15 11:29:41;;;;;;;6.20;5.60;;;29.20;95.70;;;;;;5064725;28;20268;-52
2022/08/15 11:32:12;;;;;;;7.25;6.13;;;29.30;96.00;;;;;;5066435;28;20197;-46
2022/08/15 11:34:44;;;;;;;5.70;5.13;;;29.40;95.70;;;;;;5065271;28;20193;-49
2022/08/15 11:37:14;;;;;;;6.20;5.57;;;29.40;95.70;;;;;;5064122;28;20215;-51
2022/08/15 11:39:44;;;;;;;5.55;5.05;;;29.40;95.70;;;;;;5065418;28;20193;-47
2022/08/15 11:42:17;;;;;;;5.22;4.72;;;29.40;95.70;;;;;;5062269;28;20209;-51
2022/08/15 11:44:54;;;;;;;5.93;5.43;;;29.40;95.70;;;;;;5064050;28;20201;-49
2022/08/15 11:47:21;;;;;;;6.55;5.95;;;29.40;95.70;;;;;;5063138;28;20269;-52
2022/08/15 11:49:54;;;;;;;6.53;6.00;;;29.40;95.80;;;;;;5064599;28;20197;-52
2022/08/15 11:52:25;;;;;;;6.28;5.78;;;29.40;95.70;;;;;;5067424;28;20600;-52
2022/08/15 11:55:42;;;;;;;6.47;5.88;;;29.40;95.80;;;;;;5069491;28;21370;-52
2022/08/15 11:58:22;;;;;;;6.32;5.72;;;29.40;95.80;;;;;;5005459;28;20215;-48
2022/08/15 12:00:51;;;;;;;8.43;5.72;;;29.30;95.90;;;;;;5002308;28;20326;-49
2022/08/15 12:03:21;;;;;;;6.68;6.07;;;29.30;95.90;;;;;;5045485;28;20287;-52
2022/08/15 12:05:52;;;;;;;6.97;5.63;;;29.30;96.00;;;;;;5062085;28;20229;-52
2022/08/15 12:08:24;;;;;;;9.13;5.70;;;29.30;96.00;;;;;;5065459;28;20197;-52
2022/08/15 12:10:52;;;;;;;6.78;6.07;;;29.30;96.00;;;;;;5063108;28;20269;-51
2022/08/15 12:13:24;;;;;;;7.15;6.22;;;29.40;96.00;;;;;;5063473;28;20201;-49
2022/08/15 12:15:52;;;;;;;8.45;6.35;;;29.40;95.90;;;;;;5064928;28;20243;-50
2022/08/15 12:18:33;;;;;;;8.15;6.40;;;29.50;95.90;;;;;;5063399;28;20221;-47
2022/08/15 12:21:13;;;;;;;8.48;6.47;;;29.50;95.90;;;;;;5064711;28;20213;-43
2022/08/15 12:23:49;;;;;;;7.63;6.93;;;29.70;95.80;;;;;;5064869;28;20193;-46
2022/08/15 12:26:19;;;;;;;7.10;6.40;;;29.70;95.80;;;;;;5064235;28;20185;-49
2022/08/15 12:28:47;;;;;;;6.10;5.70;;;29.70;95.70;;;;;;5064102;28;20197;-47
2022/08/15 12:31:22;;;;;;;6.13;5.57;;;29.70;95.70;;;;;;5062096;28;20205;-48
2022/08/15 12:34:00;;;;;;;6.28;5.70;;;29.80;95.70;;;;;;5062897;28;20211;-47
2022/08/15 12:36:29;;;;;;;6.40;5.80;;;29.90;95.60;;;;;;5062950;28;20684;-44
2022/08/15 12:38:56;;;;;;;5.75;5.25;;;29.90;95.60;;;;;;5067482;28;20205;-47
2022/08/15 12:41:26;;;;;;;6.80;6.10;;;30.00;95.50;;;;;;5064212;28;20205;-51
2022/08/15 12:43:53;;;;;;;8.27;5.90;;;30.00;95.40;;;;;;5067563;28;20198;-48
2022/08/15 12:46:21;;;;;;;7.85;6.50;;;30.00;95.30;;;;;;5069121;28;20197;-43
2022/08/15 12:48:49;;;;;;;7.15;6.38;;;30.00;95.30;;;;;;5065120;28;20285;-48
2022/08/15 12:51:17;;;;;;;6.97;6.25;;;30.00;95.20;;;;;;5067115;28;20338;-47
2022/08/15 12:53:46;;;;;;;7.60;6.63;;;30.00;95.10;;;;;;5072144;28;20296;-51
2022/08/15 12:56:19;;;;;;;6.78;6.10;;;30.00;95.00;;;;;;5070807;28;20193;-47
2022/08/15 12:58:46;;;;;;;9.23;5.93;;;29.90;95.40;;;;;;5069497;28;20201;-47
2022/08/15 13:01:14;;;;;;;11.90;6.63;;;29.90;95.40;;;;;;5070706;28;20193;-49
2022/08/15 13:03:42;;;;;;;7.90;6.15;;;29.80;95.30;;;;;;5066012;28;20621;-52
2022/08/15 13:06:15;;;;;;;5.70;5.18;;;29.80;95.50;;;;;;5067833;28;20197;-47
2022/08/15 13:08:42;;;;;;;7.78;6.18;;;29.80;95.60;;;;;;5064974;28;20224;-51
2022/08/15 13:11:11;;;;;;;7.25;5.72;;;29.80;95.50;;;;;;5067062;28;20720;-48
2022/08/15 13:13:38;;;;;;;7.70;6.15;;;29.80;95.70;;;;;;5065895;28;20197;-50
2022/08/15 13:16:08;;;;;;;6.20;5.65;;;29.80;95.60;;;;;;5067838;28;20621;-52
2022/08/15 13:18:37;;;;;;;7.45;4.90;;;29.80;95.70;;;;;;5066986;28;20230;-49